Shirley, United Kingdom
Current Conditions -  °F | °C
As of 3:50 AM on Wednesday 22 Oct 2014 (Local Time) from EGBB Reporting Station
Clear Clear  
Wind Chill: 42°   Ceiling: Unl
Heat Index: 45°   Visibility: 6mi
Dew Point: 37°   Wind: 5mph
Humidity: 76%   Direction: 250°WSW
Pressure: 30.18"   Gusts: NA
Location:  52.41°N, 1.83°W
Report Text: EGBB 220250Z 25004KT 210V280 CAVOK 07/03 Q1022
Loading
Personal Weather Stations






























Interactive Weather Map
Tropical Storm Tracking
New forecast layout! Learn more

10-Day Weather Forecast

Advertisements
Track Severe Weather on mobile